Time;durP1;ratioP1;P1;durP2;ratioP2;P2;SDS_P1;SDS_P2;PMS_P1;PMS_P2;Temp;Humidity;BMP_temperature;BMP_pressure;BME280_temperature;BME280_humidity;BME280_pressure;Samples;Min_cycle;Max_cycle;Signal;HPM_P1;HPM_P2
2022/09/21 00:00:05;;;;;;;2.93;2.03;;;;;;;11.85;65.29;100209.75;4963465;28;20208;-73
2022/09/21 00:02:30;;;;;;;3.83;2.13;;;;;;;11.82;65.25;100209.94;4961820;28;20208;-73
2022/09/21 00:04:56;;;;;;;3.60;2.27;;;;;;;11.81;65.39;100203.84;4962276;28;20215;-73
2022/09/21 00:07:21;;;;;;;2.10;1.90;;;;;;;11.79;65.35;100202.25;4962098;28;20239;-73
2022/09/21 00:09:50;;;;;;;4.63;1.70;;;;;;;11.74;65.57;100208.59;4961315;28;20262;-73
2022/09/21 00:12:18;;;;;;;3.22;2.00;;;;;;;11.69;65.60;100205.44;4962503;28;21307;-73
2022/09/21 00:14:44;;;;;;;5.15;2.28;;;;;;;11.66;65.71;100210.00;4935669;28;21089;-73
2022/09/21 00:17:09;;;;;;;2.63;1.63;;;;;;;11.63;65.81;100215.44;4944598;28;20251;-73
2022/09/21 00:19:35;;;;;;;4.70;2.10;;;;;;;11.59;65.88;100203.41;4935053;28;20235;-73
2022/09/21 00:22:00;;;;;;;4.10;1.80;;;;;;;11.56;66.24;100204.44;4961609;28;20303;-73
2022/09/21 00:24:26;;;;;;;2.83;1.87;;;;;;;11.53;66.26;100196.72;4963196;28;20960;-73
2022/09/21 00:26:52;;;;;;;4.63;1.70;;;;;;;11.46;66.32;100206.75;4961789;28;20227;-73
2022/09/21 00:29:18;;;;;;;2.97;1.98;;;;;;;11.42;66.47;100199.13;4964105;28;20450;-73
2022/09/21 00:31:43;;;;;;;2.80;1.93;;;;;;;11.35;66.67;100209.16;4962003;28;20222;-72
2022/09/21 00:34:09;;;;;;;5.43;2.27;;;;;;;11.26;66.84;100207.91;4962890;28;20339;-73
2022/09/21 00:36:34;;;;;;;2.87;2.37;;;;;;;11.22;67.04;100214.25;4961538;28;20222;-73
2022/09/21 00:39:01;;;;;;;2.13;1.70;;;;;;;11.19;67.06;100211.81;4962505;28;20588;-73
2022/09/21 00:41:29;;;;;;;2.15;1.65;;;;;;;11.16;67.13;100206.72;4961830;28;20208;-73
2022/09/21 00:44:29;;;;;;;2.97;2.30;;;;;;;11.14;67.13;100200.69;4960564;28;20211;-73
2022/09/21 00:46:57;;;;;;;6.70;2.30;;;;;;;11.11;67.29;100203.50;4959635;28;20227;-73
2022/09/21 00:49:25;;;;;;;5.15;1.80;;;;;;;11.08;67.22;100201.88;4950470;28;20374;-73
2022/09/21 00:51:52;;;;;;;5.90;2.60;;;;;;;11.06;67.18;100198.50;4961341;28;20205;-73
2022/09/21 00:54:24;;;;;;;2.78;1.90;;;;;;;11.05;67.44;100198.59;4961757;28;20415;-73
2022/09/21 00:56:50;;;;;;;2.75;1.95;;;;;;;11.01;67.27;100197.06;4961222;28;20281;-73
2022/09/21 00:59:17;;;;;;;8.27;2.33;;;;;;;10.95;67.67;100205.28;4960763;28;20616;-73
2022/09/21 01:01:43;;;;;;;2.20;1.80;;;;;;;10.88;67.76;100198.66;4959637;28;20227;-73
2022/09/21 01:04:10;;;;;;;2.50;2.00;;;;;;;10.77;68.01;100204.53;4960156;28;20659;-73
2022/09/21 01:06:37;;;;;;;3.65;2.20;;;;;;;10.69;68.05;100207.56;4960792;28;20263;-73
2022/09/21 01:09:03;;;;;;;3.85;1.73;;;;;;;10.63;68.32;100210.53;4962191;28;20206;-73
2022/09/21 01:11:49;;;;;;;2.57;1.90;;;;;;;10.57;68.31;100211.72;4959273;28;20216;-73
2022/09/21 01:14:25;;;;;;;4.60;2.08;;;;;;;10.54;68.64;100211.03;4963140;28;20463;-73
2022/09/21 01:17:12;;;;;;;5.10;2.25;;;;;;;10.52;68.47;100207.63;4945819;28;20245;-73
2022/09/21 01:20:08;;;;;;;3.05;2.38;;;;;;;10.49;68.43;100208.66;4962211;28;20708;-73
2022/09/21 01:23:07;;;;;;;4.90;2.60;;;;;;;10.47;68.62;100213.13;4961303;28;20736;-73
2022/09/21 01:25:53;;;;;;;2.63;1.90;;;;;;;10.44;68.56;100217.72;4959788;28;20215;-73
2022/09/21 01:28:39;;;;;;;4.45;2.33;;;;;;;10.38;68.66;100214.47;4960059;28;20233;-73
2022/09/21 01:31:06;;;;;;;4.25;2.10;;;;;;;10.32;69.04;100214.81;4961314;28;20436;-73
2022/09/21 01:33:37;;;;;;;2.88;1.95;;;;;;;10.28;69.35;100215.88;4959414;28;20470;-73
2022/09/21 01:36:09;;;;;;;3.15;1.92;;;;;;;10.24;69.12;100208.25;4960118;28;20367;-72
2022/09/21 01:38:39;;;;;;;6.53;2.40;;;;;;;10.23;69.44;100211.78;4959530;28;20393;-73
2022/09/21 01:41:08;;;;;;;6.65;3.08;;;;;;;10.23;69.31;100209.16;4960960;28;20200;-73
2022/09/21 01:43:37;;;;;;;2.05;1.85;;;;;;;10.22;69.29;100207.47;4959073;28;20215;-73
2022/09/21 01:46:07;;;;;;;4.53;2.45;;;;;;;10.23;69.27;100207.38;4960298;28;20862;-73
2022/09/21 01:48:37;;;;;;;4.60;1.83;;;;;;;10.24;69.30;100206.47;4955465;28;20246;-72
2022/09/21 01:51:08;;;;;;;2.30;2.10;;;;;;;10.24;69.08;100201.22;4961852;28;20206;-72
2022/09/21 01:53:37;;;;;;;4.07;2.70;;;;;;;10.27;69.10;100208.06;4958370;28;20204;-73
2022/09/21 01:56:11;;;;;;;3.08;2.22;;;;;;;10.26;69.04;100208.97;4960830;28;20641;-73
2022/09/21 01:58:49;;;;;;;2.28;2.08;;;;;;;10.24;69.20;100203.84;4959868;28;20318;-73
2022/09/21 02:01:21;;;;;;;4.63;2.97;;;;;;;10.24;69.18;100211.72;4960933;28;20396;-73
2022/09/21 02:03:56;;;;;;;2.10;1.90;;;;;;;10.25;69.29;100213.41;4957433;28;20277;-72
2022/09/21 02:06:25;;;;;;;5.78;2.50;;;;;;;10.26;69.20;100216.84;4958987;28;20215;-74
2022/09/21 02:08:51;;;;;;;3.13;2.85;;;;;;;10.24;69.08;100218.75;4957638;28;20245;-73
2022/09/21 02:11:20;;;;;;;4.00;2.50;;;;;;;10.24;69.19;100214.34;4960672;28;20207;-73
2022/09/21 02:13:51;;;;;;;2.72;2.45;;;;;;;10.21;69.06;100217.13;4957849;28;20212;-73
2022/09/21 02:16:38;;;;;;;3.65;2.05;;;;;;;10.18;69.40;100210.25;4959845;28;20220;-73
2022/09/21 02:19:34;;;;;;;3.15;2.40;;;;;;;10.17;69.26;100208.53;4991973;23;20321;-78
2022/09/21 02:22:34;;;;;;;2.90;2.53;;;;;;;10.16;69.21;100211.25;4959654;28;20207;-81
2022/09/21 02:25:09;;;;;;;2.60;2.13;;;;;;;10.11;69.44;100208.88;4968887;28;20215;-80
2022/09/21 02:27:48;;;;;;;5.03;2.08;;;;;;;10.08;69.30;100206.41;4966454;28;20213;-81
2022/09/21 02:30:13;;;;;;;3.45;2.25;;;;;;;10.06;69.47;100203.00;4963401;28;20202;-80
2022/09/21 02:32:51;;;;;;;7.03;2.90;;;;;;;9.98;69.51;100211.28;4965570;28;20281;-81
2022/09/21 02:35:25;;;;;;;5.32;2.33;;;;;;;9.88;69.68;100207.44;4964415;28;20223;-81
2022/09/21 02:38:00;;;;;;;3.35;2.20;;;;;;;9.79;69.84;100202.66;4964200;28;20218;-81
2022/09/21 02:40:34;;;;;;;4.95;2.20;;;;;;;9.72;70.08;100209.13;4972830;28;20439;-81
2022/09/21 02:43:06;;;;;;;3.72;2.50;;;;;;;9.64;70.12;100217.41;4970413;28;20201;-81
2022/09/21 02:45:41;;;;;;;1.65;1.50;;;;;;;9.60;70.12;100207.13;4972004;28;20198;-81
2022/09/21 02:48:15;;;;;;;2.35;2.15;;;;;;;9.53;70.48;100210.06;4970486;28;20342;-81
2022/09/21 02:50:46;;;;;;;2.90;2.33;;;;;;;9.44;70.52;100214.91;4970719;28;20234;-81
2022/09/21 02:53:16;;;;;;;2.25;2.05;;;;;;;9.40;70.65;100202.88;4970729;28;20223;-81
2022/09/21 02:55:44;;;;;;;4.25;2.10;;;;;;;9.39;70.70;100215.13;4971756;28;20223;-81
2022/09/21 02:58:13;;;;;;;3.85;2.33;;;;;;;9.38;70.61;100216.06;4951234;28;20278;-80
2022/09/21 03:00:39;;;;;;;3.88;2.33;;;;;;;9.37;70.59;100214.38;4969366;28;20207;-82
2022/09/21 03:03:20;;;;;;;3.57;2.60;;;;;;;9.38;70.70;100208.19;4971060;28;20212;-80
2022/09/21 03:05:48;;;;;;;4.85;2.75;;;;;;;9.40;70.54;100210.75;4972480;28;20709;-80
2022/09/21 03:08:16;;;;;;;3.78;3.17;;;;;;;9.38;70.47;100221.31;4967798;28;20217;-80
2022/09/21 03:10:41;;;;;;;3.17;2.30;;;;;;;9.37;70.47;100214.38;4970763;28;20193;-81
2022/09/21 03:13:10;;;;;;;3.03;2.33;;;;;;;9.37;70.60;100208.25;4969900;28;20696;-81
2022/09/21 03:15:37;;;;;;;2.75;2.45;;;;;;;9.37;70.65;100214.38;4969769;28;20286;-81
2022/09/21 03:18:04;;;;;;;3.70;2.55;;;;;;;9.37;70.57;100208.25;4968842;28;20740;-81
2022/09/21 03:20:33;;;;;;;3.70;2.42;;;;;;;9.38;70.58;100212.59;4967955;28;20193;-80
2022/09/21 03:22:59;;;;;;;4.25;2.40;;;;;;;9.38;70.37;100207.34;4967376;28;20194;-80
2022/09/21 03:25:26;;;;;;;8.75;2.40;;;;;;;9.39;70.53;100211.66;4970054;28;20292;-81
2022/09/21 03:27:52;;;;;;;2.45;2.25;;;;;;;9.39;70.38;100216.91;4969330;28;20626;-81
2022/09/21 03:30:22;;;;;;;4.10;2.30;;;;;;;9.38;70.48;100221.31;4970505;28;20411;-81
2022/09/21 03:32:49;;;;;;;3.05;2.75;;;;;;;9.33;70.51;100218.06;4966427;28;20488;-80
2022/09/21 03:35:15;;;;;;;2.10;1.80;;;;;;;9.26;70.60;100216.66;4970296;28;20791;-80
2022/09/21 03:37:41;;;;;;;2.05;1.90;;;;;;;9.17;70.59;100219.72;4967917;28;20251;-81
2022/09/21 03:40:07;;;;;;;2.17;2.03;;;;;;;9.06;70.67;100228.94;4968692;28;20229;-81
2022/09/21 03:42:33;;;;;;;2.43;1.70;;;;;;;8.95;70.71;100223.34;4966837;28;20208;-80
2022/09/21 03:44:58;;;;;;;2.20;1.80;;;;;;;8.87;70.74;100225.50;4963938;28;20451;-79
2022/09/21 03:47:24;;;;;;;1.43;1.33;;;;;;;8.81;70.68;100223.16;4967459;28;20247;-80
2022/09/21 03:49:49;;;;;;;1.83;1.30;;;;;;;8.75;70.75;100218.19;4970212;28;20487;-80
2022/09/21 03:52:14;;;;;;;2.13;1.40;;;;;;;8.68;70.88;100220.25;4967419;28;20198;-80
2022/09/21 03:54:40;;;;;;;2.47;1.90;;;;;;;8.62;70.93;100216.16;4966390;28;20250;-80
2022/09/21 03:57:05;;;;;;;2.10;1.60;;;;;;;8.60;70.96;100223.22;4966403;28;20221;-80
2022/09/21 03:59:30;;;;;;;2.93;2.43;;;;;;;8.58;71.03;100226.81;4967970;28;20277;-80
2022/09/21 04:01:56;;;;;;;5.70;2.30;;;;;;;8.57;71.00;100228.59;4967641;28;20197;-80
2022/09/21 04:04:21;;;;;;;6.60;2.80;;;;;;;8.59;70.97;100232.00;4963589;28;20183;-80
2022/09/21 04:06:47;;;;;;;5.47;3.17;;;;;;;8.54;71.57;100226.13;4966399;28;20255;-81
2022/09/21 04:09:12;;;;;;;4.23;3.53;;;;;;;8.56;71.65;100229.53;4966326;28;20324;-80
2022/09/21 04:11:38;;;;;;;3.80;3.10;;;;;;;8.53;72.32;100237.53;4965659;28;20196;-80
2022/09/21 04:14:04;;;;;;;5.10;3.83;;;;;;;8.45;72.84;100238.78;4961144;28;20291;-79
2022/09/21 04:16:30;;;;;;;4.90;3.80;;;;;;;8.41;72.79;100238.91;4966025;28;20224;-80
2022/09/21 04:18:55;;;;;;;3.33;3.03;;;;;;;8.41;72.88;100230.22;4963393;28;20251;-79
2022/09/21 04:21:21;;;;;;;3.90;2.67;;;;;;;8.44;72.83;100229.22;4965919;28;20214;-79
2022/09/21 04:23:48;;;;;;;6.28;3.30;;;;;;;8.49;72.62;100229.88;4963665;28;20208;-80
2022/09/21 04:26:25;;;;;;;4.70;2.80;;;;;;;8.54;72.77;100223.50;4965895;28;20290;-79
2022/09/21 04:28:52;;;;;;;9.20;3.35;;;;;;;8.60;72.54;100225.00;4965953;28;20221;-79
2022/09/21 04:31:17;;;;;;;7.05;3.25;;;;;;;8.66;72.43;100227.31;4964173;28;20751;-79
2022/09/21 04:33:43;;;;;;;4.30;2.57;;;;;;;8.69;71.89;100234.19;4965985;28;20195;-79
2022/09/21 04:36:08;;;;;;;6.37;2.87;;;;;;;8.70;72.25;100230.66;4964347;28;20729;-79
2022/09/21 04:38:33;;;;;;;4.60;3.07;;;;;;;8.63;72.33;100236.16;4967060;28;20232;-79
2022/09/21 04:40:59;;;;;;;3.77;3.40;;;;;;;8.54;72.58;100246.22;4974987;28;20224;-79
2022/09/21 04:43:25;;;;;;;5.70;4.40;;;;;;;8.49;72.65;100245.59;4973736;28;20214;-79
2022/09/21 04:45:51;;;;;;;5.70;3.67;;;;;;;8.46;72.95;100246.56;4974699;28;20284;-80
2022/09/21 04:48:17;;;;;;;3.70;3.28;;;;;;;8.45;72.87;100244.00;4966505;28;20688;-79
2022/09/21 04:50:43;;;;;;;4.93;4.23;;;;;;;8.46;72.73;100230.84;4967183;28;20211;-79
2022/09/21 04:53:08;;;;;;;6.75;3.42;;;;;;;8.48;72.79;100238.63;4966088;28;20693;-79
2022/09/21 04:55:34;;;;;;;5.73;3.90;;;;;;;8.47;72.68;100235.16;4965875;28;20222;-79
2022/09/21 04:57:59;;;;;;;6.67;3.17;;;;;;;8.49;72.82;100235.94;4965798;28;20220;-79
2022/09/21 05:00:25;;;;;;;5.90;3.40;;;;;;;8.50;72.66;100232.41;4974486;28;20212;-78
2022/09/21 05:02:51;;;;;;;3.60;2.90;;;;;;;8.51;72.54;100235.91;4974006;28;20396;-79
2022/09/21 05:05:16;;;;;;;5.80;3.50;;;;;;;8.46;72.79;100241.34;4972072;28;20454;-78
2022/09/21 05:07:41;;;;;;;6.60;2.63;;;;;;;8.35;72.96;100235.69;4971304;28;20554;-79
2022/09/21 05:10:07;;;;;;;5.00;3.37;;;;;;;8.29;73.24;100243.78;4967053;28;20212;-79
2022/09/21 05:12:34;;;;;;;5.13;3.17;;;;;;;8.19;73.54;100253.84;4965448;28;20292;-78
2022/09/21 05:15:00;;;;;;;6.20;3.35;;;;;;;8.10;73.64;100251.59;4965024;28;20231;-79
2022/09/21 05:17:47;;;;;;;6.57;3.65;;;;;;;8.04;74.13;100260.56;4965006;28;20225;-79
2022/09/21 05:20:13;;;;;;;4.10;3.60;;;;;;;8.04;73.82;100255.31;4960439;28;20426;-79
2022/09/21 05:22:39;;;;;;;7.47;4.05;;;;;;;8.03;73.83;100260.66;4961316;28;20282;-79
2022/09/21 05:25:05;;;;;;;4.27;3.70;;;;;;;8.02;74.13;100270.25;4958741;28;20216;-79
2022/09/21 05:27:30;;;;;;;3.63;2.80;;;;;;;8.02;74.24;100262.41;4960146;28;20746;-79
2022/09/21 05:29:56;;;;;;;4.60;3.40;;;;;;;8.04;74.35;100273.66;4961020;28;20782;-79
2022/09/21 05:32:41;;;;;;;10.40;4.47;;;;;;;8.08;74.45;100272.63;4959563;28;20220;-79
2022/09/21 05:35:26;;;;;;;9.23;5.28;;;;;;;8.18;74.29;100268.69;4958056;28;20819;-79
2022/09/21 05:38:15;;;;;;;5.43;4.65;;;;;;;8.28;74.10;100266.50;4992851;28;20255;-80
2022/09/21 05:40:41;;;;;;;9.65;6.38;;;;;;;8.39;74.39;100268.69;4996424;28;20215;-81
2022/09/21 05:43:07;;;;;;;31.40;8.90;;;;;;;8.43;74.74;100257.19;4991302;28;20289;-80
2022/09/21 05:45:33;;;;;;;13.23;7.80;;;;;;;8.53;74.63;100270.69;4979009;28;20302;-81
2022/09/21 05:48:16;;;;;;;14.83;6.87;;;;;;;8.61;74.43;100266.84;4977958;28;20739;-81
2022/09/21 05:50:51;;;;;;;16.17;7.85;;;;;;;8.70;74.31;100264.72;4979800;28;20608;-81
2022/09/21 05:53:38;;;;;;;33.15;9.35;;;;;;;8.78;74.24;100271.31;4982604;28;20206;-81
2022/09/21 05:56:07;;;;;;;15.48;8.05;;;;;;;8.85;74.21;100259.59;4978272;28;20302;-79
2022/09/21 05:58:58;;;;;;;13.93;7.55;;;;;;;8.91;74.11;100263.75;4977023;28;20330;-81
2022/09/21 06:01:39;;;;;;;32.17;9.57;;;;;;;8.97;74.26;100262.59;4980666;28;20571;-80
2022/09/21 06:04:10;;;;;;;31.80;9.25;;;;;;;8.95;74.29;100264.44;4981686;28;20846;-81
2022/09/21 06:06:35;;;;;;;40.95;10.15;;;;;;;8.97;74.34;100265.22;4988721;28;20755;-83
2022/09/21 06:09:01;;;;;;;100.43;15.77;;;;;;;8.95;74.64;100270.53;4985701;28;20461;-80
2022/09/21 06:11:26;;;;;;;21.63;9.33;;;;;;;8.93;74.49;100274.13;4980821;28;20284;-80
2022/09/21 06:13:52;;;;;;;19.43;9.93;;;;;;;8.95;75.01;100267.91;4996475;28;20205;-80
2022/09/21 06:16:17;;;;;;;25.03;13.03;;;;;;;9.11;75.33;100268.03;4982087;28;20239;-80
2022/09/21 06:18:42;;;;;;;21.60;8.17;;;;;;;9.36;74.77;100262.47;4984045;28;20256;-80
2022/09/21 06:21:08;;;;;;;21.13;8.23;;;;;;;9.51;74.51;100266.13;4977375;28;20791;-80
2022/09/21 06:23:34;;;;;;;12.70;7.70;;;;;;;9.64;74.17;100264.63;4987402;28;20250;-78
2022/09/21 06:26:00;;;;;;;13.82;8.02;;;;;;;9.74;73.65;100265.84;4979860;28;20453;-81
2022/09/21 06:28:26;;;;;;;10.63;8.90;;;;;;;9.79;73.82;100270.03;4983557;28;20491;-81
2022/09/21 06:30:54;;;;;;;13.68;8.50;;;;;;;9.80;73.47;100267.31;4984291;28;20209;-80
2022/09/21 06:33:22;;;;;;;12.65;7.80;;;;;;;9.82;73.76;100270.72;4981908;28;20202;-80
2022/09/21 06:35:58;;;;;;;14.93;9.50;;;;;;;9.88;73.92;100272.16;4981932;28;20223;-80
2022/09/21 06:38:26;;;;;;;11.88;8.38;;;;;;;9.90;73.59;100273.78;4981822;28;20232;-80
2022/09/21 06:40:52;;;;;;;18.05;8.70;;;;;;;9.96;73.85;100275.25;4982270;28;20266;-80
2022/09/21 06:43:28;;;;;;;13.90;9.40;;;;;;;10.02;73.98;100274.97;4983837;28;20207;-81
2022/09/21 06:45:58;;;;;;;16.40;8.85;;;;;;;10.32;73.42;100275.19;4980943;28;20756;-80
2022/09/21 06:48:24;;;;;;;8.25;6.90;;;;;;;10.61;72.59;100264.94;4979371;28;20610;-82
2022/09/21 06:50:50;;;;;;;9.60;7.85;;;;;;;10.81;71.85;100267.34;4979545;28;20198;-80
2022/09/21 06:53:16;;;;;;;13.13;7.70;;;;;;;10.94;71.42;100270.16;4976429;28;20198;-81
2022/09/21 06:55:42;;;;;;;12.65;8.23;;;;;;;11.13;71.09;100262.13;4979296;28;20831;-81
2022/09/21 06:58:08;;;;;;;8.23;6.57;;;;;;;11.33;70.45;100279.41;4978974;28;20222;-80
2022/09/21 07:00:33;;;;;;;11.57;6.60;;;;;;;11.41;69.86;100273.72;4977515;28;20547;-79
2022/09/21 07:02:59;;;;;;;7.93;7.23;;;;;;;11.44;69.62;100277.00;4976300;28;20697;-79
2022/09/21 07:05:25;;;;;;;8.53;6.57;;;;;;;11.47;69.43;100276.00;4977869;28;20235;-81
2022/09/21 07:07:55;;;;;;;12.00;7.27;;;;;;;11.44;69.28;100273.53;4978606;28;20379;-80
2022/09/21 07:10:20;;;;;;;13.15;8.02;;;;;;;11.41;69.51;100274.56;4979386;28;20525;-79
2022/09/21 07:12:45;;;;;;;8.67;7.33;;;;;;;11.35;69.85;100277.53;4973363;28;21129;-78
2022/09/21 07:15:12;;;;;;;19.40;8.10;;;;;;;11.26;70.09;100272.78;4974832;28;20201;-79
2022/09/21 07:17:38;;;;;;;10.13;7.15;;;;;;;11.13;70.70;100280.53;4979118;28;20231;-78
2022/09/21 07:20:06;;;;;;;13.55;6.97;;;;;;;11.14;70.88;100274.31;4977305;28;20343;-79
2022/09/21 07:22:32;;;;;;;11.00;6.65;;;;;;;11.17;70.71;100271.50;4979077;28;20216;-80
2022/09/21 07:24:59;;;;;;;12.18;6.65;;;;;;;11.26;70.84;100263.13;4981269;28;20212;-80
2022/09/21 07:27:26;;;;;;;7.80;7.00;;;;;;;11.35;70.77;100276.69;4978943;28;20202;-81
2022/09/21 07:29:52;;;;;;;11.30;7.53;;;;;;;11.42;70.54;100267.50;4983994;28;20297;-79
2022/09/21 07:32:18;;;;;;;15.70;6.47;;;;;;;11.56;70.42;100262.31;4981280;28;20622;-79
2022/09/21 07:34:44;;;;;;;8.77;6.47;;;;;;;11.70;70.15;100267.63;4979322;28;20205;-80
2022/09/21 07:37:09;;;;;;;6.82;5.13;;;;;;;11.80;69.79;100273.22;4982481;28;20238;-81
2022/09/21 07:39:35;;;;;;;15.63;7.10;;;;;;;11.88;69.64;100262.25;4983806;28;20300;-79
2022/09/21 07:42:00;;;;;;;21.33;9.57;;;;;;;11.97;69.54;100264.38;4981480;28;20219;-78
2022/09/21 07:44:26;;;;;;;6.10;5.30;;;;;;;12.29;69.07;100269.50;4981852;28;20489;-78
2022/09/21 07:46:51;;;;;;;8.10;6.13;;;;;;;13.11;67.13;100255.63;4977336;28;20267;-77
2022/09/21 07:49:17;;;;;;;13.60;5.20;;;;;;;14.18;64.46;100255.66;4978586;28;20211;-77
2022/09/21 07:51:42;;;;;;;4.67;4.27;;;;;;;15.31;61.39;100240.66;4983727;28;20409;-77
2022/09/21 07:54:09;;;;;;;6.77;4.93;;;;;;;16.32;58.64;100246.31;4987717;28;20230;-78
2022/09/21 07:56:38;;;;;;;5.30;4.43;;;;;;;17.26;56.10;100242.41;4987431;28;20370;-80
2022/09/21 07:59:07;;;;;;;5.95;4.63;;;;;;;17.98;53.91;100235.59;4987714;28;20703;-76
2022/09/21 08:01:40;;;;;;;5.57;4.00;;;;;;;18.51;52.25;100235.50;4981416;28;20231;-79
2022/09/21 08:04:08;;;;;;;7.10;4.15;;;;;;;19.00;50.06;100233.88;4981935;28;20184;-78
2022/09/21 08:06:38;;;;;;;7.22;5.18;;;;;;;19.46;48.83;100227.06;4983188;28;20188;-78
2022/09/21 08:09:05;;;;;;;5.28;3.72;;;;;;;19.82;47.39;100232.69;4980763;28;20217;-78
2022/09/21 08:11:32;;;;;;;5.95;3.90;;;;;;;20.16;46.51;100230.38;4984907;28;20203;-78
2022/09/21 08:14:02;;;;;;;4.50;4.10;;;;;;;20.62;45.60;100222.53;4982443;28;20192;-78
2022/09/21 08:16:29;;;;;;;5.33;4.20;;;;;;;20.82;44.43;100226.81;4984491;28;20494;-78
2022/09/21 08:21:51;;;;;;;5.10;3.30;;;;;;;20.61;44.10;100223.53;4940137;28;20471;-72
2022/09/21 08:24:16;;;;;;;5.17;3.70;;;;;;;20.93;43.58;100220.44;4947008;28;20443;-72
2022/09/21 08:26:42;;;;;;;5.50;4.00;;;;;;;21.23;42.60;100223.75;4956258;28;21152;-72
2022/09/21 08:29:08;;;;;;;4.43;4.03;;;;;;;21.45;42.18;100215.31;4953493;28;20187;-72
2022/09/21 08:31:33;;;;;;;4.23;3.73;;;;;;;21.82;41.59;100208.94;4957937;28;20410;-72
2022/09/21 08:33:59;;;;;;;5.70;4.00;;;;;;;22.10;40.34;100213.16;4956931;28;20527;-72
2022/09/21 08:36:25;;;;;;;4.83;3.37;;;;;;;22.36;39.71;100200.78;4953991;28;20240;-74
2022/09/21 08:38:50;;;;;;;4.23;3.00;;;;;;;22.28;39.41;100202.44;4957290;28;20657;-72
2022/09/21 08:41:46;;;;;;;7.77;3.80;;;;;;;22.32;39.06;100202.94;4957884;28;20204;-72
2022/09/21 08:44:25;;;;;;;4.90;3.80;;;;;;;22.36;39.02;100206.13;4959834;28;20207;-72
2022/09/21 08:47:19;;;;;;;5.70;5.03;;;;;;;22.58;38.63;100197.56;4958904;28;20534;-72
2022/09/21 08:49:56;;;;;;;4.50;3.10;;;;;;;22.78;38.04;100195.44;4958044;28;20952;-72
2022/09/21 08:52:23;;;;;;;6.23;3.20;;;;;;;22.74;37.49;100200.28;4958922;28;20451;-72
2022/09/21 08:54:54;;;;;;;6.57;3.10;;;;;;;22.39;37.40;100189.78;4957606;28;21064;-71
2022/09/21 08:57:24;;;;;;;5.10;2.70;;;;;;;21.92;37.95;100193.63;4957297;28;20475;-72
2022/09/21 08:59:49;;;;;;;6.10;2.90;;;;;;;21.77;38.82;100201.38;4956783;28;21162;-72
2022/09/21 09:02:50;;;;;;;4.93;4.00;;;;;;;21.71;39.06;100201.16;4957374;28;20440;-71
2022/09/21 09:05:18;;;;;;;5.27;2.57;;;;;;;21.54;39.53;100205.53;4957646;28;20227;-72
2022/09/21 09:07:59;;;;;;;5.67;2.63;;;;;;;21.34;39.98;100192.31;4955589;28;20439;-71
2022/09/21 09:10:50;;;;;;;5.60;3.67;;;;;;;20.97;40.29;100187.91;4955365;28;20461;-72
2022/09/21 09:13:16;;;;;;;3.00;2.60;;;;;;;20.67;41.14;100188.25;4955943;28;20427;-72
2022/09/21 09:16:02;;;;;;;7.97;4.00;;;;;;;20.53;41.47;100182.41;4955120;28;20467;-72
2022/09/21 09:18:51;;;;;;;9.43;3.23;;;;;;;20.34;41.81;100180.63;4957131;28;20703;-72
2022/09/21 09:21:54;;;;;;;6.00;2.30;;;;;;;20.15;42.63;100194.03;4958813;28;20612;-72
2022/09/21 09:24:19;;;;;;;6.20;2.30;;;;;;;19.98;43.21;100184.09;4948338;28;20413;-72
2022/09/21 09:26:52;;;;;;;2.60;2.40;;;;;;;19.93;42.97;100175.69;4957125;28;20474;-72
2022/09/21 09:29:42;;;;;;;3.53;2.30;;;;;;;19.79;42.93;100174.31;4956073;28;20208;-72
2022/09/21 09:32:13;;;;;;;2.17;1.93;;;;;;;19.62;43.13;100176.72;4952867;28;20972;-72
2022/09/21 09:34:42;;;;;;;3.23;2.23;;;;;;;19.59;43.01;100176.16;4956785;28;20450;-72
2022/09/21 09:37:13;;;;;;;4.20;2.87;;;;;;;19.51;43.04;100168.03;4955159;28;21060;-72
2022/09/21 09:39:41;;;;;;;2.87;2.43;;;;;;;19.54;42.99;100170.41;4955541;28;20452;-72
2022/09/21 09:42:06;;;;;;;8.80;3.63;;;;;;;19.53;42.83;100168.75;4945633;28;21163;-71
2022/09/21 09:44:49;;;;;;;4.43;2.80;;;;;;;19.54;42.65;100165.91;4957345;28;20440;-72
2022/09/21 09:47:29;;;;;;;3.23;2.00;;;;;;;19.57;42.62;100157.63;4956034;28;20201;-72
2022/09/21 09:50:23;;;;;;;5.90;2.30;;;;;;;19.73;42.46;100161.56;4954877;28;20460;-72
2022/09/21 09:52:53;;;;;;;6.50;2.63;;;;;;;19.84;42.26;100148.91;4953781;28;21100;-72
2022/09/21 09:55:46;;;;;;;4.83;2.83;;;;;;;19.93;42.37;100152.56;4959583;28;20459;-72
2022/09/21 09:58:33;;;;;;;3.40;1.93;;;;;;;19.95;40.82;100147.06;4949359;28;20454;-72
2022/09/21 10:00:59;;;;;;;4.40;2.27;;;;;;;19.85;39.85;100147.94;4959119;28;20422;-72
2022/09/21 10:03:26;;;;;;;3.30;3.00;;;;;;;19.75;40.59;100143.63;4954946;28;20786;-73
2022/09/21 10:05:52;;;;;;;5.77;3.03;;;;;;;19.72;41.38;100142.09;4958792;28;20176;-73
2022/09/21 10:08:40;;;;;;;3.57;2.80;;;;;;;19.71;41.86;100139.56;4955195;28;20828;-72
2022/09/21 10:11:07;;;;;;;2.13;1.70;;;;;;;19.77;42.01;100133.66;4957763;28;20708;-72
2022/09/21 10:13:34;;;;;;;6.37;2.00;;;;;;;19.81;41.95;100135.88;4960844;28;20792;-72
2022/09/21 10:16:13;;;;;;;3.27;2.07;;;;;;;19.79;42.22;100134.34;4961099;28;20482;-72
2022/09/21 10:18:45;;;;;;;7.10;2.63;;;;;;;19.79;42.58;100126.34;4958335;28;20443;-73
2022/09/21 10:21:33;;;;;;;3.10;2.40;;;;;;;19.77;42.13;100121.19;4959025;28;20549;-72
2022/09/21 10:24:01;;;;;;;2.60;1.90;;;;;;;19.81;42.32;100119.88;4958101;28;20461;-73
2022/09/21 10:26:34;;;;;;;3.87;2.40;;;;;;;19.86;41.83;100111.47;4958853;28;20438;-72
2022/09/21 10:29:16;;;;;;;3.50;1.93;;;;;;;19.97;41.63;100119.28;4959643;28;20443;-73
2022/09/21 10:31:59;;;;;;;3.40;1.70;;;;;;;20.16;40.89;100106.88;4956979;28;20463;-74
2022/09/21 10:34:29;;;;;;;4.47;1.77;;;;;;;20.34;40.65;100097.09;4956548;28;20519;-74
2022/09/21 10:36:58;;;;;;;3.90;2.03;;;;;;;20.44;40.44;100092.53;4972016;28;20576;-74
2022/09/21 10:39:25;;;;;;;1.77;1.57;;;;;;;20.51;39.77;100084.78;4943457;28;20534;-73
2022/09/21 10:42:19;;;;;;;2.30;1.60;;;;;;;20.51;39.47;100090.94;4952458;28;21025;-74
2022/09/21 10:44:47;;;;;;;5.60;2.10;;;;;;;20.58;39.51;100088.56;4951836;28;20535;-74
2022/09/21 10:47:54;;;;;;;3.00;2.00;;;;;;;20.62;38.90;100081.09;4954752;28;20447;-75
2022/09/21 10:50:24;;;;;;;2.77;1.87;;;;;;;20.68;38.30;100077.81;4936881;28;20477;-74
2022/09/21 10:52:56;;;;;;;2.07;1.90;;;;;;;20.63;37.15;100072.06;4950976;28;20930;-73
2022/09/21 10:55:23;;;;;;;2.77;1.80;;;;;;;20.51;37.46;100069.59;4949999;28;20795;-73
2022/09/21 10:57:51;;;;;;;11.17;2.03;;;;;;;20.52;37.47;100076.63;4952853;28;20512;-73
2022/09/21 11:00:22;;;;;;;3.03;1.67;;;;;;;20.55;37.25;100075.53;4954947;28;20460;-73
2022/09/21 11:02:49;;;;;;;6.17;3.50;;;;;;;20.53;35.40;100075.66;4958267;28;20904;-73
2022/09/21 11:05:28;;;;;;;29.10;6.10;;;;;;;20.28;33.85;100070.97;4954779;28;20519;-73
2022/09/21 11:08:05;;;;;;;2.57;1.30;;;;;;;19.95;33.21;100067.09;4956972;28;20678;-74
2022/09/21 11:10:54;;;;;;;115.00;24.03;;;;;;;20.00;33.20;100064.81;4957760;28;20999;-73
2022/09/21 11:13:34;;;;;;;1.33;1.20;;;;;;;19.99;32.50;100061.31;4947879;28;20418;-74
2022/09/21 11:16:09;;;;;;;1.53;1.30;;;;;;;19.92;32.31;100056.72;4956562;28;20576;-73
2022/09/21 11:19:06;;;;;;;3.37;1.20;;;;;;;19.99;32.42;100055.97;4953716;28;20413;-73
2022/09/21 11:21:54;;;;;;;4.30;1.53;;;;;;;20.01;32.71;100055.81;4957846;28;20523;-74
2022/09/21 11:24:44;;;;;;;1.30;1.10;;;;;;;19.94;32.45;100044.09;4956453;28;20926;-74
2022/09/21 11:27:17;;;;;;;2.30;1.30;;;;;;;19.92;32.38;100048.72;4954939;28;20447;-74
2022/09/21 11:30:02;;;;;;;1.73;1.13;;;;;;;20.12;32.25;100044.97;4949334;28;20462;-73
2022/09/21 11:32:45;;;;;;;1.50;1.20;;;;;;;20.14;31.60;100042.16;4958451;28;20429;-74
2022/09/21 11:35:40;;;;;;;1.70;1.47;;;;;;;20.13;31.64;100043.97;4951536;28;20575;-75
2022/09/21 11:38:42;;;;;;;10.50;1.83;;;;;;;20.25;31.79;100042.81;4956457;28;20528;-74
2022/09/21 11:41:15;;;;;;;4.00;1.60;;;;;;;20.30;32.52;100035.16;4948782;28;20471;-73
2022/09/21 11:43:58;;;;;;;7.80;2.37;;;;;;;20.34;32.68;100041.06;4957974;28;20988;-73
2022/09/21 11:46:35;;;;;;;1.80;1.70;;;;;;;20.26;32.42;100033.81;4956075;28;20788;-73
2022/09/21 11:49:19;;;;;;;35.90;5.80;;;;;;;20.26;32.17;100030.31;4951547;28;20415;-74